createdAt,value
2023-05-11T00:00:33.873Z,99071.20
2023-05-11T00:01:52.010Z,99071.30
2023-05-11T00:02:59.096Z,99066.61
2023-05-11T00:04:06.767Z,99067.46
2023-05-11T00:05:14.376Z,99069.85
2023-05-11T00:06:21.278Z,99066.88
2023-05-11T00:07:31.159Z,99067.61
2023-05-11T00:08:38.682Z,99069.56
2023-05-11T00:09:45.554Z,99067.56
2023-05-11T00:10:55.600Z,99069.11
2023-05-11T00:12:03.512Z,99068.70
2023-05-11T00:13:10.543Z,99068.30
2023-05-11T00:14:17.143Z,99065.70
2023-05-11T00:15:24.346Z,99066.22
2023-05-11T00:16:31.111Z,99064.27
2023-05-11T00:17:38.071Z,99065.63
2023-05-11T00:18:45.168Z,99067.46
2023-05-11T00:19:52.481Z,99062.77
2023-05-11T00:20:59.197Z,99064.44
2023-05-11T00:22:05.898Z,99061.88
2023-05-11T00:23:13.110Z,99062.29
2023-05-11T00:24:19.868Z,99061.50
2023-05-11T00:25:27.185Z,99064.55
2023-05-11T00:26:34.261Z,99061.61
2023-05-11T00:27:42.227Z,99061.65
2023-05-11T00:28:49.551Z,99061.18
2023-05-11T00:30:02.604Z,99061.70
2023-05-11T00:31:10.844Z,99061.02
2023-05-11T00:32:18.513Z,99061.58
2023-05-11T00:33:26.176Z,99062.66
2023-05-11T00:34:33.451Z,99063.57
2023-05-11T00:35:41.622Z,99065.40
2023-05-11T00:36:49.544Z,99066.30
2023-05-11T00:37:57.017Z,99067.70
2023-05-11T00:39:04.505Z,99062.92
2023-05-11T00:40:12.046Z,99063.48
2023-05-11T00:41:19.921Z,99066.75
2023-05-11T00:42:27.111Z,99064.92
2023-05-11T00:43:35.270Z,99064.00
2023-05-11T00:44:42.545Z,99062.98
2023-05-11T00:45:51.489Z,99064.22
2023-05-11T00:46:58.523Z,99066.60
2023-05-11T00:48:05.424Z,99061.89
2023-05-11T00:49:13.822Z,99064.27
2023-05-11T00:50:20.779Z,99063.32
2023-05-11T00:51:27.938Z,99062.13
2023-05-11T00:52:35.086Z,99067.59
2023-05-11T00:53:43.190Z,99067.05
2023-05-11T00:54:50.058Z,99066.53
2023-05-11T00:55:57.462Z,99067.17
2023-05-11T00:57:08.323Z,99066.86
2023-05-11T00:58:15.602Z,99068.09
2023-05-11T00:59:22.858Z,99069.61
2023-05-11T01:00:29.701Z,99066.63
2023-05-11T01:01:38.547Z,99066.69
2023-05-11T01:02:45.636Z,99066.66
2023-05-11T01:03:52.612Z,99067.40
2023-05-11T01:05:00.034Z,99065.42
2023-05-11T01:06:25.578Z,99067.59
2023-05-11T01:08:02.769Z,99066.25
2023-05-11T01:09:34.632Z,99065.55
2023-05-11T01:10:49.785Z,99065.37
2023-05-11T01:12:26.988Z,99064.29
2023-05-11T01:13:36.730Z,99066.69
2023-05-11T01:14:50.831Z,99063.20
2023-05-11T01:16:00.467Z,99065.70
2023-05-11T01:17:12.107Z,99067.20
2023-05-11T01:18:33.208Z,99067.52
2023-05-11T01:19:48.937Z,99066.92
2023-05-11T01:20:59.766Z,99065.25
2023-05-11T01:22:28.972Z,99064.89
2023-05-11T01:24:15.139Z,99064.58
2023-05-11T01:25:48.077Z,99062.74
2023-05-11T01:27:24.285Z,99062.89
2023-05-11T01:29:04.432Z,99066.45
2023-05-11T01:30:46.635Z,99068.55
2023-05-11T01:31:54.824Z,99067.92
2023-05-11T01:33:08.446Z,99070.38
2023-05-11T01:34:20.252Z,99072.15
2023-05-11T01:35:29.154Z,99068.06
2023-05-11T01:36:41.920Z,99072.17
2023-05-11T01:37:52.619Z,99071.91
2023-05-11T01:39:02.996Z,99070.41
2023-05-11T01:40:15.263Z,99071.55
2023-05-11T01:41:23.724Z,99070.98
2023-05-11T01:42:52.445Z,99070.45
2023-05-11T01:44:05.117Z,99071.85
2023-05-11T01:45:12.940Z,99076.55
2023-05-11T01:46:20.166Z,99077.13
2023-05-11T01:47:27.982Z,99078.95
2023-05-11T01:48:37.844Z,99080.51
2023-05-11T01:49:46.158Z,99082.30
2023-05-11T01:50:53.013Z,99087.33
2023-05-11T01:51:59.896Z,99085.77
2023-05-11T01:53:06.962Z,99085.55
2023-05-11T01:54:17.072Z,99085.52
2023-05-11T01:55:24.452Z,99086.44
2023-05-11T01:56:31.124Z,99086.23
2023-05-11T01:57:40.452Z,99087.02
2023-05-11T01:58:47.080Z,99089.77
2023-05-11T01:59:58.637Z,99090.54
2023-05-11T02:01:06.100Z,99091.10
2023-05-11T02:02:13.495Z,99092.34
2023-05-11T02:03:20.303Z,99093.41
2023-05-11T02:04:28.570Z,99089.91
2023-05-11T02:05:38.077Z,99094.50
2023-05-11T02:06:45.571Z,99093.46
2023-05-11T02:07:53.734Z,99093.27
2023-05-11T02:09:00.923Z,99092.80
2023-05-11T02:10:09.154Z,99094.09
2023-05-11T02:11:19.913Z,99097.14
2023-05-11T02:12:27.797Z,99095.52
2023-05-11T02:13:36.036Z,99092.96
2023-05-11T02:14:44.106Z,99097.00
2023-05-11T02:15:53.138Z,99099.06
2023-05-11T02:17:00.929Z,99098.91
2023-05-11T02:18:09.249Z,99096.36
2023-05-11T02:19:16.367Z,99096.54
2023-05-11T02:20:24.200Z,99097.27
2023-05-11T02:21:31.334Z,99097.80
2023-05-11T02:22:38.408Z,99101.11
2023-05-11T02:23:45.870Z,99103.83
2023-05-11T02:24:53.084Z,99107.58
2023-05-11T02:26:00.950Z,99106.66
2023-05-11T02:27:07.802Z,99106.72
2023-05-11T02:28:14.703Z,99104.34
2023-05-11T02:29:21.729Z,99106.55
2023-05-11T02:30:29.329Z,99107.55
2023-05-11T02:31:39.275Z,99112.19
2023-05-11T02:32:55.603Z,99114.45
2023-05-11T02:34:12.981Z,99114.77
2023-05-11T02:35:25.245Z,99116.42
2023-05-11T02:36:32.566Z,99119.52
2023-05-11T02:37:43.855Z,99119.41
2023-05-11T02:38:53.151Z,99121.20
2023-05-11T02:40:07.737Z,99122.82
2023-05-11T02:41:19.362Z,99124.36
2023-05-11T02:42:26.918Z,99126.45
2023-05-11T02:43:37.093Z,99124.77
2023-05-11T02:44:53.067Z,99125.93
2023-05-11T02:46:06.789Z,99128.77
2023-05-11T02:47:14.307Z,99123.78
2023-05-11T02:48:29.125Z,99122.23
2023-05-11T02:49:35.874Z,99124.06
2023-05-11T02:50:44.534Z,99125.73
2023-05-11T02:51:52.069Z,99123.99
2023-05-11T02:53:01.926Z,99123.75
2023-05-11T02:54:15.889Z,99122.98
2023-05-11T02:55:27.663Z,99122.67
2023-05-11T02:56:35.170Z,99125.61
2023-05-11T02:57:43.662Z,99129.29
2023-05-11T02:58:51.094Z,99127.13
2023-05-11T03:00:02.823Z,99128.74
2023-05-11T03:01:10.784Z,99130.19
2023-05-11T03:02:19.163Z,99129.52
2023-05-11T03:03:27.112Z,99131.38
2023-05-11T03:04:35.673Z,99134.10
2023-05-11T03:05:43.417Z,99133.73
2023-05-11T03:06:51.781Z,99135.83
2023-05-11T03:07:59.980Z,99136.67
2023-05-11T03:09:09.951Z,99136.86
2023-05-11T03:10:21.645Z,99138.64
2023-05-11T03:11:30.210Z,99142.89
2023-05-11T03:12:38.431Z,99140.50
2023-05-11T03:13:47.337Z,99142.57
2023-05-11T03:14:55.326Z,99139.70
2023-05-11T03:16:04.212Z,99142.63
2023-05-11T03:17:11.629Z,99139.91
2023-05-11T03:18:18.990Z,99142.64
2023-05-11T03:19:27.023Z,99142.30
2023-05-11T03:20:34.847Z,99147.55
2023-05-11T03:21:42.803Z,99146.10
2023-05-11T03:22:50.295Z,99146.48
2023-05-11T03:24:10.925Z,99148.98
2023-05-11T03:25:18.367Z,99145.98
2023-05-11T03:26:25.562Z,99147.22
2023-05-11T03:27:33.259Z,99146.69
2023-05-11T03:28:43.015Z,99148.32
2023-05-11T03:29:49.692Z,99149.65
2023-05-11T03:30:57.081Z,99148.90
2023-05-11T03:32:04.125Z,99150.73
2023-05-11T03:33:13.366Z,99150.70
2023-05-11T03:34:21.179Z,99151.14
2023-05-11T03:35:30.515Z,99151.19
2023-05-11T03:36:38.562Z,99154.06
2023-05-11T03:37:45.840Z,99155.11
2023-05-11T03:38:54.691Z,99152.98
2023-05-11T03:40:02.583Z,99154.38
2023-05-11T03:41:17.592Z,99156.53
2023-05-11T03:42:27.880Z,99162.78
2023-05-11T03:43:36.280Z,99160.94
2023-05-11T03:44:44.193Z,99158.36
2023-05-11T03:45:54.867Z,99160.37
2023-05-11T03:47:02.856Z,99161.48
2023-05-11T03:48:10.929Z,99163.65
2023-05-11T03:49:19.343Z,99163.66
2023-05-11T03:50:26.916Z,99160.87
2023-05-11T03:51:34.655Z,99163.59
2023-05-11T03:52:43.280Z,99163.66
2023-05-11T03:53:51.212Z,99162.73
2023-05-11T03:55:00.505Z,99166.23
2023-05-11T03:56:11.439Z,99166.40
2023-05-11T03:57:18.713Z,99167.85
2023-05-11T03:58:26.382Z,99165.60
2023-05-11T03:59:33.880Z,99163.20
2023-05-11T04:00:43.137Z,99162.01
2023-05-11T04:01:54.349Z,99177.60
2023-05-11T04:03:07.255Z,99180.31
2023-05-11T04:04:14.531Z,99183.23
2023-05-11T04:05:21.745Z,99178.35
2023-05-11T04:06:28.548Z,99179.97
2023-05-11T04:07:55.378Z,99180.53
2023-05-11T04:09:02.635Z,99182.85
2023-05-11T04:10:10.418Z,99180.59
2023-05-11T04:11:16.950Z,99185.73
2023-05-11T04:12:23.613Z,99187.63
2023-05-11T04:13:30.539Z,99187.48
2023-05-11T04:14:37.349Z,99185.63
2023-05-11T04:15:44.489Z,99189.83
2023-05-11T04:16:51.946Z,99190.89
2023-05-11T04:18:00.274Z,99187.83
2023-05-11T04:19:08.950Z,99186.19
2023-05-11T04:20:16.566Z,99188.56
2023-05-11T04:21:24.321Z,99189.63
2023-05-11T04:22:32.205Z,99190.31
2023-05-11T04:23:39.684Z,99193.95
2023-05-11T04:24:47.556Z,99194.86
2023-05-11T04:25:56.790Z,99195.92
2023-05-11T04:27:03.480Z,99197.48
2023-05-11T04:28:13.661Z,99193.69
2023-05-11T04:29:21.392Z,99192.05
2023-05-11T04:30:28.849Z,99193.21
2023-05-11T04:31:36.361Z,99195.02
2023-05-11T04:32:44.214Z,99197.55
2023-05-11T04:33:51.376Z,99198.84
2023-05-11T04:34:58.554Z,99196.70
2023-05-11T04:36:08.950Z,99198.86
2023-05-11T04:37:15.847Z,99197.66
2023-05-11T04:38:23.400Z,99198.21
2023-05-11T04:39:30.660Z,99198.45
2023-05-11T04:40:38.382Z,99198.31
2023-05-11T04:41:48.917Z,99201.30
2023-05-11T04:42:56.155Z,99201.25
2023-05-11T04:44:03.542Z,99204.91
2023-05-11T04:45:11.667Z,99200.73
2023-05-11T04:46:21.486Z,99197.64
2023-05-11T04:47:28.618Z,99196.05
2023-05-11T04:48:37.979Z,99193.13
2023-05-11T04:49:46.538Z,99194.96
2023-05-11T04:50:53.969Z,99196.58
2023-05-11T04:52:02.989Z,99198.47
2023-05-11T04:53:11.476Z,99198.88
2023-05-11T04:54:18.475Z,99198.00
2023-05-11T04:55:26.893Z,99199.42
2023-05-11T04:56:34.846Z,99199.93
2023-05-11T04:57:42.991Z,99199.41
2023-05-11T04:58:51.192Z,99198.55
2023-05-11T04:59:58.538Z,99200.05
2023-05-11T05:01:05.984Z,99198.34
2023-05-11T05:02:12.708Z,99196.15
2023-05-11T05:03:19.689Z,99202.34
2023-05-11T05:04:27.543Z,99201.80
2023-05-11T05:05:35.442Z,99203.08
2023-05-11T05:06:44.123Z,99204.46
2023-05-11T05:07:52.468Z,99202.16
2023-05-11T05:09:00.753Z,99201.45
2023-05-11T05:10:10.482Z,99201.91
2023-05-11T05:11:17.074Z,99199.60
2023-05-11T05:12:26.143Z,99205.87
2023-05-11T05:13:33.068Z,99202.41
2023-05-11T05:14:40.080Z,99205.34
2023-05-11T05:15:47.210Z,99205.95
2023-05-11T05:16:55.536Z,99210.73
2023-05-11T05:18:03.249Z,99208.73
2023-05-11T05:19:11.336Z,99205.54
2023-05-11T05:20:18.386Z,99206.59
2023-05-11T05:21:26.231Z,99206.95
2023-05-11T05:22:33.518Z,99202.98
2023-05-11T05:23:41.071Z,99205.31
2023-05-11T05:24:48.006Z,99205.44
2023-05-11T05:25:55.020Z,99204.30
2023-05-11T05:27:02.550Z,99202.70
2023-05-11T05:28:09.117Z,99205.64
2023-05-11T05:29:15.800Z,99208.23
2023-05-11T05:30:22.635Z,99212.33
2023-05-11T05:31:29.718Z,99210.25
2023-05-11T05:32:36.809Z,99209.48
2023-05-11T05:33:43.729Z,99208.29
2023-05-11T05:34:51.072Z,99210.13
2023-05-11T05:35:57.783Z,99208.36
2023-05-11T05:37:04.732Z,99205.06
2023-05-11T05:38:11.654Z,99207.58
2023-05-11T05:39:18.720Z,99208.68
2023-05-11T05:40:25.699Z,99208.97
2023-05-11T05:41:35.881Z,99205.18
2023-05-11T05:42:45.250Z,99202.42
2023-05-11T05:43:55.180Z,99204.70
2023-05-11T05:45:01.921Z,99205.65
2023-05-11T05:46:08.524Z,99204.05
2023-05-11T05:47:16.786Z,99205.17
2023-05-11T05:48:24.952Z,99200.98
2023-05-11T05:49:32.130Z,99200.29
2023-05-11T05:50:40.609Z,99200.24
2023-05-11T05:51:49.092Z,99196.95
2023-05-11T05:52:55.652Z,99195.08
2023-05-11T05:54:06.604Z,99197.84
2023-05-11T05:55:13.268Z,99196.92
2023-05-11T05:56:20.332Z,99199.31
2023-05-11T05:57:28.352Z,99197.93
2023-05-11T05:58:35.102Z,99195.57
2023-05-11T05:59:42.130Z,99196.67
2023-05-11T06:00:50.694Z,99194.11
2023-05-11T06:01:57.865Z,99192.64
2023-05-11T06:03:04.806Z,99191.59
2023-05-11T06:04:12.222Z,99190.02
2023-05-11T06:05:18.874Z,99190.55
2023-05-11T06:06:28.020Z,99190.62
2023-05-11T06:07:35.864Z,99191.56
2023-05-11T06:08:42.640Z,99189.53
2023-05-11T06:09:50.071Z,99189.04
2023-05-11T06:10:57.540Z,99184.54
2023-05-11T06:12:06.340Z,99182.89
2023-05-11T06:13:14.298Z,99185.16
2023-05-11T06:14:24.499Z,99185.33
2023-05-11T06:15:31.741Z,99180.65
2023-05-11T06:16:42.965Z,99181.39
2023-05-11T06:17:50.699Z,99180.14
2023-05-11T06:18:57.941Z,99178.98
2023-05-11T06:20:05.962Z,99179.27
2023-05-11T06:21:14.263Z,99177.46
2023-05-11T06:22:21.199Z,99171.79
2023-05-11T06:23:29.290Z,99171.63
2023-05-11T06:24:36.689Z,99171.84
2023-05-11T06:25:44.962Z,99176.23
2023-05-11T06:26:54.424Z,99176.75
2023-05-11T06:28:03.236Z,99175.64
2023-05-11T06:29:10.420Z,99177.84
2023-05-11T06:30:18.476Z,99177.31
2023-05-11T06:31:26.876Z,99175.95
2023-05-11T06:32:35.563Z,99175.58
2023-05-11T06:33:43.117Z,99176.46
2023-05-11T06:34:59.322Z,99174.67
2023-05-11T06:36:07.919Z,99175.17
2023-05-11T06:37:21.739Z,99179.11
2023-05-11T06:38:30.362Z,99176.09
2023-05-11T06:39:42.094Z,99175.45
2023-05-11T06:40:48.683Z,99174.70
2023-05-11T06:41:57.047Z,99173.77
2023-05-11T06:43:08.172Z,99173.58
2023-05-11T06:44:23.744Z,99176.18
2023-05-11T06:45:33.506Z,99177.38
2023-05-11T06:46:41.279Z,99175.95
2023-05-11T06:47:49.249Z,99177.74
2023-05-11T06:48:57.333Z,99174.02
2023-05-11T06:50:05.299Z,99174.48
2023-05-11T06:51:12.978Z,99174.40
2023-05-11T06:52:19.802Z,99172.14
2023-05-11T06:53:26.764Z,99170.23
2023-05-11T06:54:36.510Z,99165.90
2023-05-11T06:55:44.605Z,99165.95
2023-05-11T06:56:51.374Z,99167.80
2023-05-11T06:57:58.332Z,99174.13
2023-05-11T06:59:04.992Z,99174.76
2023-05-11T07:00:12.500Z,99175.77
2023-05-11T07:01:22.152Z,99178.39
2023-05-11T07:02:29.474Z,99174.89
2023-05-11T07:03:36.896Z,99169.27
2023-05-11T07:04:45.458Z,99171.63
2023-05-11T07:05:52.961Z,99172.02
2023-05-11T07:07:00.545Z,99167.63
2023-05-11T07:08:07.521Z,99165.98
2023-05-11T07:09:14.270Z,99161.14
2023-05-11T07:10:22.021Z,99161.27
2023-05-11T07:11:28.016Z,99157.42
2023-05-11T07:12:35.361Z,99159.33
2023-05-11T07:13:43.289Z,99157.13
2023-05-11T07:14:50.973Z,99157.92
2023-05-11T07:16:01.018Z,99158.98
2023-05-11T07:17:08.185Z,99159.56
2023-05-11T07:18:15.265Z,99160.32
2023-05-11T07:19:21.932Z,99160.11
2023-05-11T07:20:29.765Z,99160.27
2023-05-11T07:21:37.969Z,99160.69
2023-05-11T07:22:45.214Z,99160.91
2023-05-11T07:23:52.418Z,99157.44
2023-05-11T07:24:59.228Z,99154.30
2023-05-11T07:26:09.992Z,99157.19
2023-05-11T07:27:17.310Z,99157.64
2023-05-11T07:28:24.929Z,99153.61
2023-05-11T07:29:32.542Z,99159.42
2023-05-11T07:30:42.594Z,99155.29
2023-05-11T07:31:50.065Z,99157.40
2023-05-11T07:32:59.654Z,99156.13
2023-05-11T07:34:07.232Z,99157.34
2023-05-11T07:35:14.573Z,99159.07
2023-05-11T07:36:21.321Z,99157.70
2023-05-11T07:37:28.315Z,99155.82
2023-05-11T07:38:35.101Z,99154.66
2023-05-11T07:39:42.042Z,99152.89
2023-05-11T07:40:49.067Z,99148.26
2023-05-11T07:41:56.230Z,99142.07
2023-05-11T07:43:03.383Z,99141.47
2023-05-11T07:44:10.045Z,99137.11
2023-05-11T07:45:16.916Z,99136.12
2023-05-11T07:46:23.898Z,99136.95
2023-05-11T07:47:30.748Z,99130.60
2023-05-11T07:48:41.767Z,99128.33
2023-05-11T07:49:50.010Z,99129.60
2023-05-11T07:50:56.963Z,99129.34
2023-05-11T07:52:04.140Z,99127.39
2023-05-11T07:53:11.516Z,99126.84
2023-05-11T07:54:20.263Z,99124.57
2023-05-11T07:55:32.714Z,99121.45
2023-05-11T07:56:39.646Z,99122.68
2023-05-11T07:57:47.112Z,99121.41
2023-05-11T07:58:55.298Z,99122.08
2023-05-11T08:00:02.872Z,99115.44
2023-05-11T08:01:18.325Z,99118.88
2023-05-11T08:02:26.416Z,99118.21
2023-05-11T08:03:34.060Z,99117.89
2023-05-11T08:04:42.776Z,99114.89
2023-05-11T08:05:51.296Z,99113.84
2023-05-11T08:06:59.667Z,99109.48
2023-05-11T08:08:08.213Z,99108.70
2023-05-11T08:09:16.600Z,99107.88
2023-05-11T08:10:23.868Z,99109.27
2023-05-11T08:11:32.050Z,99109.21
2023-05-11T08:12:39.572Z,99109.10
2023-05-11T08:13:46.884Z,99108.05
2023-05-11T08:14:55.260Z,99110.42
2023-05-11T08:16:03.578Z,99108.98
2023-05-11T08:17:11.078Z,99107.11
2023-05-11T08:18:18.118Z,99109.16
2023-05-11T08:19:25.736Z,99106.71
2023-05-11T08:20:32.378Z,99105.83
2023-05-11T08:21:38.835Z,99106.10
2023-05-11T08:22:47.672Z,99107.92
2023-05-11T08:23:54.796Z,99107.27
2023-05-11T08:25:02.022Z,99108.70
2023-05-11T08:26:09.300Z,99112.13
2023-05-11T08:27:16.927Z,99111.53
2023-05-11T08:28:24.967Z,99109.15
2023-05-11T08:29:33.664Z,99106.33
2023-05-11T08:30:40.797Z,99104.02
2023-05-11T08:31:48.081Z,99098.92
2023-05-11T08:32:58.869Z,99095.67
2023-05-11T08:34:17.713Z,99095.79
2023-05-11T08:35:27.436Z,99093.33
2023-05-11T08:36:36.479Z,99087.02
2023-05-11T08:37:44.894Z,99086.37
2023-05-11T08:38:53.730Z,99087.59
2023-05-11T08:40:02.434Z,99091.45
2023-05-11T08:41:10.623Z,99090.51
2023-05-11T08:42:18.014Z,99091.61
2023-05-11T08:43:24.958Z,99085.73
2023-05-11T08:44:32.269Z,99084.92
2023-05-11T08:45:41.026Z,99082.31
2023-05-11T08:46:50.123Z,99082.81
2023-05-11T08:48:01.524Z,99085.91
2023-05-11T08:49:09.959Z,99086.80
2023-05-11T08:50:17.356Z,99085.96
2023-05-11T08:51:25.945Z,99087.34
2023-05-11T08:52:33.149Z,99086.85
2023-05-11T08:53:40.434Z,99089.06
2023-05-11T08:54:48.894Z,99088.05
2023-05-11T08:55:57.378Z,99087.27
2023-05-11T08:57:05.431Z,99091.16
2023-05-11T08:58:16.084Z,99089.55
2023-05-11T08:59:24.023Z,99090.59
2023-05-11T09:00:32.816Z,99090.48
2023-05-11T09:01:40.919Z,99088.89
2023-05-11T09:02:48.529Z,99086.95
2023-05-11T09:03:56.060Z,99085.39
2023-05-11T09:05:06.231Z,99084.45
2023-05-11T09:06:14.113Z,99081.10
2023-05-11T09:07:21.217Z,99081.33
2023-05-11T09:08:29.212Z,99079.55
2023-05-11T09:09:37.313Z,99079.27
2023-05-11T09:10:45.908Z,99078.77
2023-05-11T09:11:53.791Z,99078.10
2023-05-11T09:13:00.754Z,99077.55
2023-05-11T09:14:07.680Z,99080.98
2023-05-11T09:15:17.808Z,99083.92
2023-05-11T09:16:36.260Z,99083.98
2023-05-11T09:17:44.852Z,99079.25
2023-05-11T09:18:55.788Z,99079.81
2023-05-11T09:20:06.727Z,99077.70
2023-05-11T09:21:14.084Z,99076.77
2023-05-11T09:22:20.774Z,99075.70
2023-05-11T09:23:28.327Z,99073.83
2023-05-11T09:24:35.070Z,99074.03
2023-05-11T09:25:41.883Z,99072.44
2023-05-11T09:26:49.220Z,99073.21
2023-05-11T09:27:55.888Z,99074.15
2023-05-11T09:29:04.149Z,99075.52
2023-05-11T09:31:46.245Z,99078.28
2023-05-11T09:32:55.724Z,99081.39
2023-05-11T09:34:19.677Z,99079.78
2023-05-11T09:35:29.745Z,99081.61
2023-05-11T09:36:36.697Z,99078.95
2023-05-11T09:37:43.718Z,99077.35
2023-05-11T09:38:50.966Z,99071.76
2023-05-11T09:41:09.488Z,99068.80
2023-05-11T09:42:20.542Z,99070.35
2023-05-11T09:43:28.444Z,99071.45
2023-05-11T09:44:34.917Z,99068.41
2023-05-11T09:45:43.812Z,99069.13
2023-05-11T09:46:50.699Z,99063.81
2023-05-11T09:47:57.394Z,99067.96
2023-05-11T09:49:04.873Z,99064.52
2023-05-11T09:50:26.274Z,99068.39
2023-05-11T09:51:35.441Z,99064.35
2023-05-11T09:52:54.217Z,99067.29
2023-05-11T09:54:02.897Z,99066.30
2023-05-11T09:55:12.735Z,99063.29
2023-05-11T09:56:20.056Z,99062.40
2023-05-11T09:57:31.876Z,99066.17
2023-05-11T09:58:52.763Z,99064.34
2023-05-11T10:00:01.042Z,99063.72
2023-05-11T10:01:09.269Z,99063.83
2023-05-11T10:02:25.767Z,99064.05
2023-05-11T10:03:33.851Z,99064.60
2023-05-11T10:04:41.101Z,99065.04
2023-05-11T10:06:04.365Z,99065.33
2023-05-11T10:07:10.998Z,99064.93
2023-05-11T10:08:21.281Z,99061.33
2023-05-11T10:09:31.803Z,99064.88
2023-05-11T10:10:38.299Z,99065.31
2023-05-11T10:11:47.205Z,99067.41
2023-05-11T10:12:53.958Z,99071.77
2023-05-11T10:14:00.750Z,99072.99
2023-05-11T10:15:09.167Z,99071.83
2023-05-11T10:16:17.578Z,99073.33
2023-05-11T10:17:24.614Z,99073.59
2023-05-11T10:18:35.616Z,99069.48
2023-05-11T10:19:44.984Z,99066.39
2023-05-11T10:20:51.859Z,99073.64
2023-05-11T10:21:58.859Z,99071.20
2023-05-11T10:23:05.452Z,99069.75
2023-05-11T10:24:12.682Z,99068.30
2023-05-11T10:25:20.474Z,99069.63
2023-05-11T10:26:27.496Z,99068.36
2023-05-11T10:27:34.477Z,99062.92
2023-05-11T10:28:41.847Z,99060.88
2023-05-11T10:29:49.562Z,99059.38
2023-05-11T10:30:56.798Z,99053.22
2023-05-11T10:32:03.459Z,99052.92
2023-05-11T10:33:10.001Z,99058.50
2023-05-11T10:34:16.506Z,99059.29
2023-05-11T10:35:23.333Z,99058.73
2023-05-11T10:36:34.232Z,99060.15
2023-05-11T10:37:41.932Z,99061.54
2023-05-11T10:38:50.365Z,99058.60
2023-05-11T10:39:57.047Z,99061.52
2023-05-11T10:41:07.862Z,99057.31
2023-05-11T10:42:49.667Z,99058.08
2023-05-11T10:44:36.587Z,99060.14
2023-05-11T10:46:11.737Z,99059.08
2023-05-11T10:47:58.106Z,99057.24
2023-05-11T10:49:20.181Z,99056.47
2023-05-11T10:50:54.706Z,99058.91
2023-05-11T10:52:18.066Z,99057.36
2023-05-11T10:54:01.420Z,99056.36
2023-05-11T10:55:15.456Z,99056.47
2023-05-11T10:56:48.581Z,99058.40
2023-05-11T10:58:18.024Z,99056.40
2023-05-11T10:59:56.861Z,99056.06
2023-05-11T11:01:40.723Z,99052.85
2023-05-11T11:02:51.507Z,99052.90
2023-05-11T11:04:00.876Z,99054.23
2023-05-11T11:05:11.781Z,99055.44
2023-05-11T11:06:25.761Z,99054.60
2023-05-11T11:07:32.484Z,99057.26
2023-05-11T11:08:57.698Z,99055.65
2023-05-11T11:10:07.640Z,99054.41
2023-05-11T11:11:34.898Z,99055.91
2023-05-11T11:12:41.468Z,99055.02
2023-05-11T11:13:58.841Z,99056.13
2023-05-11T11:15:07.376Z,99052.58
2023-05-11T11:16:16.345Z,99055.00
2023-05-11T11:17:25.570Z,99052.06
2023-05-11T11:18:34.693Z,99053.05
2023-05-11T11:19:41.971Z,99054.66
2023-05-11T11:20:54.341Z,99051.82
2023-05-11T11:22:01.747Z,99051.38
2023-05-11T11:23:09.497Z,99052.26
2023-05-11T11:24:48.450Z,99050.48
2023-05-11T11:25:55.984Z,99052.30
2023-05-11T11:27:03.560Z,99050.09
2023-05-11T11:28:10.477Z,99049.98
2023-05-11T11:29:17.640Z,99051.35
2023-05-11T11:30:31.043Z,99050.35
2023-05-11T11:31:38.650Z,99032.11
2023-05-11T11:32:46.300Z,99027.94
2023-05-11T11:33:54.633Z,99026.10
2023-05-11T11:35:02.072Z,99032.36
2023-05-11T11:36:10.457Z,99033.17
2023-05-11T11:37:18.439Z,99032.79
2023-05-11T11:38:29.337Z,99031.58
2023-05-11T11:39:51.032Z,99030.23
2023-05-11T11:40:58.114Z,99034.33
2023-05-11T11:42:06.271Z,99032.77
2023-05-11T11:43:24.754Z,99035.33
2023-05-11T11:44:32.513Z,99034.15
2023-05-11T11:45:39.776Z,99033.86
2023-05-11T11:46:47.002Z,99034.36
2023-05-11T11:48:14.570Z,99033.65
2023-05-11T11:49:21.511Z,99031.92
2023-05-11T11:50:29.563Z,99029.70
2023-05-11T11:51:36.459Z,99025.98
2023-05-11T11:52:43.568Z,99028.91
2023-05-11T11:54:01.642Z,99029.84
2023-05-11T11:55:08.618Z,99033.55
2023-05-11T11:56:40.999Z,99034.37
2023-05-11T11:57:52.202Z,99033.48
2023-05-11T11:59:05.830Z,99031.32
2023-05-11T12:00:14.576Z,99028.15
2023-05-11T12:01:22.943Z,99026.41
2023-05-11T12:02:30.104Z,99027.18
2023-05-11T12:03:38.584Z,99029.45
2023-05-11T12:05:04.430Z,99031.17
2023-05-11T12:06:12.567Z,99032.44
2023-05-11T12:07:20.513Z,99032.38
2023-05-11T12:08:27.529Z,99031.11
2023-05-11T12:09:34.711Z,99032.10
2023-05-11T12:10:42.710Z,99033.42
2023-05-11T12:11:50.509Z,99032.98
2023-05-11T12:13:00.017Z,99031.95
2023-05-11T12:14:11.375Z,99032.95
2023-05-11T12:15:29.968Z,99030.16
2023-05-11T12:16:40.202Z,99029.63
2023-05-11T12:17:48.150Z,99032.55
2023-05-11T12:18:59.300Z,99028.74
2023-05-11T12:20:16.653Z,99030.64
2023-05-11T12:21:26.511Z,99030.92
2023-05-11T12:22:33.463Z,99030.09
2023-05-11T12:23:40.103Z,99028.62
2023-05-11T12:24:47.292Z,99027.80
2023-05-11T12:26:08.033Z,99029.20
2023-05-11T12:27:15.497Z,99025.71
2023-05-11T12:28:22.365Z,99022.35
2023-05-11T12:29:28.829Z,99026.91
2023-05-11T12:30:36.458Z,99025.36
2023-05-11T12:31:45.287Z,99024.77
2023-05-11T12:34:03.429Z,99029.66
2023-05-11T12:35:10.170Z,99030.79
2023-05-11T12:36:17.824Z,99031.73
2023-05-11T12:37:24.366Z,99032.52
2023-05-11T12:38:31.602Z,99032.09
2023-05-11T12:39:38.306Z,99031.83
2023-05-11T12:40:52.550Z,99032.27
2023-05-11T12:41:59.108Z,99032.89
2023-05-11T12:43:06.092Z,99031.85
2023-05-11T12:44:12.769Z,99032.19
2023-05-11T12:45:20.151Z,99035.36
2023-05-11T12:46:27.721Z,99034.20
2023-05-11T12:47:34.617Z,99036.09
2023-05-11T12:48:42.077Z,99035.60
2023-05-11T12:49:50.178Z,99033.11
2023-05-11T12:50:58.409Z,99035.17
2023-05-11T12:52:10.487Z,99037.23
2023-05-11T12:53:18.958Z,99041.55
2023-05-11T12:54:42.414Z,99043.66
2023-05-11T12:56:00.068Z,99047.23
2023-05-11T12:57:08.963Z,99048.77
2023-05-11T12:58:17.157Z,99048.11
2023-05-11T12:59:33.485Z,99048.45
2023-05-11T13:00:52.285Z,99045.96
2023-05-11T13:02:18.550Z,99045.79
2023-05-11T13:03:28.069Z,99047.02
2023-05-11T13:04:35.970Z,99048.26
2023-05-11T13:05:42.804Z,99053.34
2023-05-11T13:06:50.471Z,99054.50
2023-05-11T13:08:08.273Z,99054.88
2023-05-11T13:09:27.523Z,99057.88
2023-05-11T13:10:35.670Z,99061.70
2023-05-11T13:11:42.752Z,99062.64
2023-05-11T13:12:53.475Z,99063.77
2023-05-11T13:14:01.508Z,99062.38
2023-05-11T13:15:14.294Z,99063.60
2023-05-11T13:16:32.630Z,99066.59
2023-05-11T13:17:43.670Z,99067.81
2023-05-11T13:19:03.045Z,99073.02
2023-05-11T13:20:30.780Z,99074.61
2023-05-11T13:21:37.554Z,99077.12
2023-05-11T13:22:45.479Z,99079.10
2023-05-11T13:23:53.154Z,99080.55
2023-05-11T13:25:06.209Z,99083.48
2023-05-11T13:26:15.554Z,99088.70
2023-05-11T13:27:25.669Z,99088.59
2023-05-11T13:28:34.805Z,99084.98
2023-05-11T13:29:41.742Z,99087.27
2023-05-11T13:30:48.521Z,99088.52
2023-05-11T13:31:55.844Z,99089.57
2023-05-11T13:33:05.949Z,99091.17
2023-05-11T13:34:13.553Z,99092.06
2023-05-11T13:35:20.714Z,99094.45
2023-05-11T13:36:27.879Z,99092.89
2023-05-11T13:37:35.359Z,99095.83
2023-05-11T13:38:42.410Z,99096.72
2023-05-11T13:39:49.505Z,99096.12
2023-05-11T13:40:56.444Z,99101.65
2023-05-11T13:42:03.435Z,99105.41
2023-05-11T13:43:11.266Z,99102.81
2023-05-11T13:44:18.005Z,99103.14